sensor_id;sensor_type;location;lat;lon;timestamp;P1;durP1;ratioP1;P2;durP2;ratioP2
20637;SDS011;10478;49.004;8.470;2023-06-22T00:01:13;4.57;;;2.75;;
20637;SDS011;10478;49.004;8.470;2023-06-22T00:03:39;6.20;;;3.28;;
20637;SDS011;10478;49.004;8.470;2023-06-22T00:06:04;6.25;;;2.90;;
20637;SDS011;10478;49.004;8.470;2023-06-22T00:08:29;5.38;;;2.80;;
20637;SDS011;10478;49.004;8.470;2023-06-22T00:10:56;4.93;;;3.00;;
20637;SDS011;10478;49.004;8.470;2023-06-22T00:13:21;4.53;;;2.75;;
20637;SDS011;10478;49.004;8.470;2023-06-22T00:15:46;5.18;;;3.05;;
20637;SDS011;10478;49.004;8.470;2023-06-22T00:18:12;7.40;;;2.88;;
20637;SDS011;10478;49.004;8.470;2023-06-22T00:20:38;10.35;;;3.53;;
20637;SDS011;10478;49.004;8.470;2023-06-22T00:23:04;4.88;;;3.20;;
20637;SDS011;10478;49.004;8.470;2023-06-22T00:25:33;3.97;;;3.08;;
20637;SDS011;10478;49.004;8.470;2023-06-22T00:28:02;8.77;;;3.80;;
20637;SDS011;10478;49.004;8.470;2023-06-22T00:30:29;4.30;;;3.05;;
20637;SDS011;10478;49.004;8.470;2023-06-22T00:32:55;6.05;;;3.65;;
20637;SDS011;10478;49.004;8.470;2023-06-22T00:35:20;10.82;;;3.55;;
20637;SDS011;10478;49.004;8.470;2023-06-22T00:37:45;4.90;;;3.35;;
20637;SDS011;10478;49.004;8.470;2023-06-22T00:40:11;29.15;;;5.35;;
20637;SDS011;10478;49.004;8.470;2023-06-22T00:42:37;7.68;;;3.20;;
20637;SDS011;10478;49.004;8.470;2023-06-22T00:45:03;6.30;;;3.40;;
20637;SDS011;10478;49.004;8.470;2023-06-22T00:47:30;6.30;;;3.45;;
20637;SDS011;10478;49.004;8.470;2023-06-22T00:49:55;8.30;;;3.72;;
20637;SDS011;10478;49.004;8.470;2023-06-22T00:52:21;7.53;;;3.42;;
20637;SDS011;10478;49.004;8.470;2023-06-22T00:54:51;9.05;;;4.53;;
20637;SDS011;10478;49.004;8.470;2023-06-22T00:57:17;9.07;;;4.47;;
20637;SDS011;10478;49.004;8.470;2023-06-22T00:59:44;6.13;;;3.08;;
20637;SDS011;10478;49.004;8.470;2023-06-22T01:02:09;6.45;;;3.50;;
20637;SDS011;10478;49.004;8.470;2023-06-22T01:04:35;7.57;;;4.20;;
20637;SDS011;10478;49.004;8.470;2023-06-22T01:07:20;8.30;;;4.15;;
20637;SDS011;10478;49.004;8.470;2023-06-22T01:12:34;10.48;;;4.07;;
20637;SDS011;10478;49.004;8.470;2023-06-22T01:15:08;5.13;;;3.20;;
20637;SDS011;10478;49.004;8.470;2023-06-22T01:17:37;8.32;;;3.75;;
20637;SDS011;10478;49.004;8.470;2023-06-22T01:20:04;5.28;;;3.55;;
20637;SDS011;10478;49.004;8.470;2023-06-22T01:22:33;7.07;;;3.80;;
20637;SDS011;10478;49.004;8.470;2023-06-22T01:25:07;8.07;;;3.90;;
20637;SDS011;10478;49.004;8.470;2023-06-22T01:30:31;6.43;;;4.20;;
20637;SDS011;10478;49.004;8.470;2023-06-22T01:33:00;7.50;;;3.25;;
20637;SDS011;10478;49.004;8.470;2023-06-22T01:35:26;9.80;;;4.00;;
20637;SDS011;10478;49.004;8.470;2023-06-22T01:37:52;6.93;;;3.72;;
20637;SDS011;10478;49.004;8.470;2023-06-22T01:40:17;5.93;;;3.83;;
20637;SDS011;10478;49.004;8.470;2023-06-22T01:42:43;11.07;;;4.90;;
20637;SDS011;10478;49.004;8.470;2023-06-22T01:45:09;5.63;;;3.50;;
20637;SDS011;10478;49.004;8.470;2023-06-22T01:47:36;7.72;;;4.22;;
20637;SDS011;10478;49.004;8.470;2023-06-22T01:50:01;7.32;;;3.90;;
20637;SDS011;10478;49.004;8.470;2023-06-22T01:52:26;9.63;;;4.22;;
20637;SDS011;10478;49.004;8.470;2023-06-22T01:54:52;6.00;;;3.95;;
20637;SDS011;10478;49.004;8.470;2023-06-22T01:57:17;6.63;;;4.30;;
20637;SDS011;10478;49.004;8.470;2023-06-22T01:59:48;9.70;;;4.65;;
20637;SDS011;10478;49.004;8.470;2023-06-22T02:02:19;10.10;;;4.47;;
20637;SDS011;10478;49.004;8.470;2023-06-22T02:04:56;6.68;;;3.70;;
20637;SDS011;10478;49.004;8.470;2023-06-22T02:07:24;6.78;;;4.03;;
20637;SDS011;10478;49.004;8.470;2023-06-22T02:09:53;7.15;;;4.15;;
20637;SDS011;10478;49.004;8.470;2023-06-22T02:12:21;7.47;;;4.07;;
20637;SDS011;10478;49.004;8.470;2023-06-22T02:14:47;8.63;;;4.80;;
20637;SDS011;10478;49.004;8.470;2023-06-22T02:17:13;6.25;;;4.00;;
20637;SDS011;10478;49.004;8.470;2023-06-22T02:19:42;9.27;;;3.78;;
20637;SDS011;10478;49.004;8.470;2023-06-22T02:22:07;11.07;;;4.65;;
20637;SDS011;10478;49.004;8.470;2023-06-22T02:24:33;6.88;;;4.03;;
20637;SDS011;10478;49.004;8.470;2023-06-22T02:26:59;7.95;;;4.35;;
20637;SDS011;10478;49.004;8.470;2023-06-22T02:29:24;10.57;;;4.45;;
20637;SDS011;10478;49.004;8.470;2023-06-22T02:31:50;10.02;;;5.10;;
20637;SDS011;10478;49.004;8.470;2023-06-22T02:34:15;10.23;;;5.15;;
20637;SDS011;10478;49.004;8.470;2023-06-22T02:36:46;6.20;;;4.28;;
20637;SDS011;10478;49.004;8.470;2023-06-22T02:41:47;6.60;;;4.07;;
20637;SDS011;10478;49.004;8.470;2023-06-22T02:44:13;13.65;;;4.88;;
20637;SDS011;10478;49.004;8.470;2023-06-22T02:46:38;8.27;;;4.22;;
20637;SDS011;10478;49.004;8.470;2023-06-22T02:49:04;10.13;;;4.60;;
20637;SDS011;10478;49.004;8.470;2023-06-22T02:51:30;10.13;;;4.93;;
20637;SDS011;10478;49.004;8.470;2023-06-22T02:53:58;12.02;;;4.75;;
20637;SDS011;10478;49.004;8.470;2023-06-22T02:56:24;8.85;;;4.30;;
20637;SDS011;10478;49.004;8.470;2023-06-22T02:58:50;7.45;;;4.35;;
20637;SDS011;10478;49.004;8.470;2023-06-22T03:01:15;10.85;;;4.75;;
20637;SDS011;10478;49.004;8.470;2023-06-22T03:03:41;15.88;;;5.47;;
20637;SDS011;10478;49.004;8.470;2023-06-22T03:06:06;6.00;;;4.13;;
20637;SDS011;10478;49.004;8.470;2023-06-22T03:08:31;7.20;;;4.88;;
20637;SDS011;10478;49.004;8.470;2023-06-22T03:10:57;8.02;;;4.40;;
20637;SDS011;10478;49.004;8.470;2023-06-22T03:13:22;6.10;;;4.18;;
20637;SDS011;10478;49.004;8.470;2023-06-22T03:15:47;7.07;;;4.88;;
20637;SDS011;10478;49.004;8.470;2023-06-22T03:18:13;6.95;;;4.40;;
20637;SDS011;10478;49.004;8.470;2023-06-22T03:20:38;9.18;;;5.55;;
20637;SDS011;10478;49.004;8.470;2023-06-22T03:23:04;15.90;;;5.68;;
20637;SDS011;10478;49.004;8.470;2023-06-22T03:25:30;8.15;;;5.03;;
20637;SDS011;10478;49.004;8.470;2023-06-22T03:27:55;8.25;;;4.65;;
20637;SDS011;10478;49.004;8.470;2023-06-22T03:30:20;8.02;;;4.80;;
20637;SDS011;10478;49.004;8.470;2023-06-22T03:32:45;8.40;;;4.97;;
20637;SDS011;10478;49.004;8.470;2023-06-22T03:35:11;8.57;;;5.25;;
20637;SDS011;10478;49.004;8.470;2023-06-22T03:37:38;8.05;;;4.80;;
20637;SDS011;10478;49.004;8.470;2023-06-22T03:40:03;10.73;;;5.45;;
20637;SDS011;10478;49.004;8.470;2023-06-22T03:42:30;11.85;;;5.15;;
20637;SDS011;10478;49.004;8.470;2023-06-22T03:44:55;8.00;;;4.03;;
20637;SDS011;10478;49.004;8.470;2023-06-22T03:47:20;13.02;;;5.30;;
20637;SDS011;10478;49.004;8.470;2023-06-22T03:49:46;8.32;;;4.88;;
20637;SDS011;10478;49.004;8.470;2023-06-22T03:52:11;10.48;;;4.75;;
20637;SDS011;10478;49.004;8.470;2023-06-22T03:54:36;6.72;;;4.80;;
20637;SDS011;10478;49.004;8.470;2023-06-22T03:57:02;8.25;;;5.07;;
20637;SDS011;10478;49.004;8.470;2023-06-22T03:59:27;8.05;;;5.25;;
20637;SDS011;10478;49.004;8.470;2023-06-22T04:01:52;9.38;;;5.07;;
20637;SDS011;10478;49.004;8.470;2023-06-22T04:04:18;8.23;;;5.47;;
20637;SDS011;10478;49.004;8.470;2023-06-22T04:06:43;9.60;;;4.97;;
20637;SDS011;10478;49.004;8.470;2023-06-22T04:09:08;9.85;;;5.00;;
20637;SDS011;10478;49.004;8.470;2023-06-22T04:11:34;12.70;;;4.90;;
20637;SDS011;10478;49.004;8.470;2023-06-22T04:13:59;8.43;;;4.93;;
20637;SDS011;10478;49.004;8.470;2023-06-22T04:16:25;8.05;;;5.45;;
20637;SDS011;10478;49.004;8.470;2023-06-22T04:18:50;11.10;;;5.75;;
20637;SDS011;10478;49.004;8.470;2023-06-22T04:21:15;10.73;;;5.28;;
20637;SDS011;10478;49.004;8.470;2023-06-22T04:23:41;9.48;;;5.22;;
20637;SDS011;10478;49.004;8.470;2023-06-22T04:26:08;9.32;;;4.65;;
20637;SDS011;10478;49.004;8.470;2023-06-22T04:28:33;8.30;;;4.82;;
20637;SDS011;10478;49.004;8.470;2023-06-22T04:31:02;9.75;;;5.85;;
20637;SDS011;10478;49.004;8.470;2023-06-22T04:33:27;8.75;;;5.57;;
20637;SDS011;10478;49.004;8.470;2023-06-22T04:35:54;10.30;;;5.25;;
20637;SDS011;10478;49.004;8.470;2023-06-22T04:38:22;11.55;;;5.85;;
20637;SDS011;10478;49.004;8.470;2023-06-22T04:40:47;10.45;;;5.60;;
20637;SDS011;10478;49.004;8.470;2023-06-22T04:43:13;9.45;;;5.03;;
20637;SDS011;10478;49.004;8.470;2023-06-22T04:45:38;12.27;;;5.32;;
20637;SDS011;10478;49.004;8.470;2023-06-22T04:48:04;11.63;;;5.03;;
20637;SDS011;10478;49.004;8.470;2023-06-22T04:50:30;7.30;;;4.50;;
20637;SDS011;10478;49.004;8.470;2023-06-22T04:52:55;7.93;;;5.25;;
20637;SDS011;10478;49.004;8.470;2023-06-22T04:55:20;7.68;;;4.75;;
20637;SDS011;10478;49.004;8.470;2023-06-22T04:57:46;8.02;;;4.90;;
20637;SDS011;10478;49.004;8.470;2023-06-22T05:00:18;8.10;;;4.45;;
20637;SDS011;10478;49.004;8.470;2023-06-22T05:02:44;10.55;;;4.68;;
20637;SDS011;10478;49.004;8.470;2023-06-22T05:05:11;7.82;;;4.65;;
20637;SDS011;10478;49.004;8.470;2023-06-22T05:07:49;10.57;;;5.70;;
20637;SDS011;10478;49.004;8.470;2023-06-22T05:10:17;7.93;;;5.05;;
20637;SDS011;10478;49.004;8.470;2023-06-22T05:12:43;11.88;;;5.00;;
20637;SDS011;10478;49.004;8.470;2023-06-22T05:15:08;9.40;;;5.65;;
20637;SDS011;10478;49.004;8.470;2023-06-22T05:17:34;11.77;;;5.47;;
20637;SDS011;10478;49.004;8.470;2023-06-22T05:20:00;10.90;;;5.60;;
20637;SDS011;10478;49.004;8.470;2023-06-22T05:22:25;7.30;;;4.90;;
20637;SDS011;10478;49.004;8.470;2023-06-22T05:24:51;10.55;;;5.20;;
20637;SDS011;10478;49.004;8.470;2023-06-22T05:27:16;10.45;;;6.35;;
20637;SDS011;10478;49.004;8.470;2023-06-22T05:29:41;10.82;;;4.32;;
20637;SDS011;10478;49.004;8.470;2023-06-22T05:32:09;8.32;;;5.07;;
20637;SDS011;10478;49.004;8.470;2023-06-22T05:34:35;10.45;;;5.07;;
20637;SDS011;10478;49.004;8.470;2023-06-22T05:37:00;15.10;;;5.07;;
20637;SDS011;10478;49.004;8.470;2023-06-22T05:39:25;11.00;;;5.07;;
20637;SDS011;10478;49.004;8.470;2023-06-22T05:41:51;9.07;;;5.05;;
20637;SDS011;10478;49.004;8.470;2023-06-22T05:44:16;10.60;;;5.28;;
20637;SDS011;10478;49.004;8.470;2023-06-22T05:46:42;9.40;;;6.20;;
20637;SDS011;10478;49.004;8.470;2023-06-22T05:49:13;8.70;;;5.32;;
20637;SDS011;10478;49.004;8.470;2023-06-22T05:51:38;14.23;;;6.13;;
20637;SDS011;10478;49.004;8.470;2023-06-22T05:54:04;11.55;;;5.75;;
20637;SDS011;10478;49.004;8.470;2023-06-22T05:56:29;11.15;;;6.22;;
20637;SDS011;10478;49.004;8.470;2023-06-22T05:58:55;13.15;;;5.93;;
20637;SDS011;10478;49.004;8.470;2023-06-22T06:01:20;10.40;;;5.90;;
20637;SDS011;10478;49.004;8.470;2023-06-22T06:03:46;9.52;;;6.55;;
20637;SDS011;10478;49.004;8.470;2023-06-22T06:06:11;8.88;;;6.00;;
20637;SDS011;10478;49.004;8.470;2023-06-22T06:08:37;11.55;;;5.18;;
20637;SDS011;10478;49.004;8.470;2023-06-22T06:11:03;10.85;;;5.70;;
20637;SDS011;10478;49.004;8.470;2023-06-22T06:13:28;10.70;;;6.15;;
20637;SDS011;10478;49.004;8.470;2023-06-22T06:15:54;11.05;;;5.93;;
20637;SDS011;10478;49.004;8.470;2023-06-22T06:18:22;10.07;;;5.95;;
20637;SDS011;10478;49.004;8.470;2023-06-22T06:20:47;11.32;;;6.60;;
20637;SDS011;10478;49.004;8.470;2023-06-22T06:23:13;13.82;;;5.22;;
20637;SDS011;10478;49.004;8.470;2023-06-22T06:25:38;7.68;;;5.05;;
20637;SDS011;10478;49.004;8.470;2023-06-22T06:28:04;11.50;;;5.18;;
20637;SDS011;10478;49.004;8.470;2023-06-22T06:30:29;8.52;;;5.50;;
20637;SDS011;10478;49.004;8.470;2023-06-22T06:32:55;13.43;;;6.65;;
20637;SDS011;10478;49.004;8.470;2023-06-22T06:35:20;11.20;;;5.70;;
20637;SDS011;10478;49.004;8.470;2023-06-22T06:37:47;8.82;;;5.20;;
20637;SDS011;10478;49.004;8.470;2023-06-22T06:40:15;7.80;;;5.22;;
20637;SDS011;10478;49.004;8.470;2023-06-22T06:42:41;9.27;;;5.78;;
20637;SDS011;10478;49.004;8.470;2023-06-22T06:45:09;12.80;;;6.15;;
20637;SDS011;10478;49.004;8.470;2023-06-22T06:47:35;10.65;;;6.32;;
20637;SDS011;10478;49.004;8.470;2023-06-22T06:50:01;11.18;;;5.63;;
20637;SDS011;10478;49.004;8.470;2023-06-22T06:52:26;10.43;;;5.32;;
20637;SDS011;10478;49.004;8.470;2023-06-22T06:54:52;9.40;;;6.07;;
20637;SDS011;10478;49.004;8.470;2023-06-22T06:57:17;9.07;;;5.60;;
20637;SDS011;10478;49.004;8.470;2023-06-22T06:59:43;10.32;;;5.55;;
20637;SDS011;10478;49.004;8.470;2023-06-22T07:02:09;10.32;;;5.68;;
20637;SDS011;10478;49.004;8.470;2023-06-22T07:04:34;10.38;;;6.00;;
20637;SDS011;10478;49.004;8.470;2023-06-22T07:07:01;9.65;;;5.30;;
20637;SDS011;10478;49.004;8.470;2023-06-22T07:09:27;8.20;;;4.93;;
20637;SDS011;10478;49.004;8.470;2023-06-22T07:11:52;8.27;;;5.07;;
20637;SDS011;10478;49.004;8.470;2023-06-22T07:14:17;8.75;;;5.70;;
20637;SDS011;10478;49.004;8.470;2023-06-22T07:16:43;11.00;;;5.57;;
20637;SDS011;10478;49.004;8.470;2023-06-22T07:19:08;8.15;;;5.15;;
20637;SDS011;10478;49.004;8.470;2023-06-22T07:21:36;11.45;;;5.95;;
20637;SDS011;10478;49.004;8.470;2023-06-22T07:24:01;8.02;;;5.95;;
20637;SDS011;10478;49.004;8.470;2023-06-22T07:26:26;9.73;;;5.35;;
20637;SDS011;10478;49.004;8.470;2023-06-22T07:28:52;10.23;;;4.60;;
20637;SDS011;10478;49.004;8.470;2023-06-22T07:31:17;5.10;;;4.43;;
20637;SDS011;10478;49.004;8.470;2023-06-22T07:33:42;8.82;;;5.78;;
20637;SDS011;10478;49.004;8.470;2023-06-22T07:36:08;10.50;;;5.20;;
20637;SDS011;10478;49.004;8.470;2023-06-22T07:38:33;11.55;;;4.43;;
20637;SDS011;10478;49.004;8.470;2023-06-22T07:41:00;7.55;;;4.53;;
20637;SDS011;10478;49.004;8.470;2023-06-22T07:43:25;10.55;;;5.03;;
20637;SDS011;10478;49.004;8.470;2023-06-22T07:45:50;8.73;;;4.60;;
20637;SDS011;10478;49.004;8.470;2023-06-22T07:48:22;9.32;;;5.43;;
20637;SDS011;10478;49.004;8.470;2023-06-22T07:50:48;6.03;;;4.18;;
20637;SDS011;10478;49.004;8.470;2023-06-22T07:53:13;8.10;;;5.00;;
20637;SDS011;10478;49.004;8.470;2023-06-22T07:55:39;13.02;;;5.45;;
20637;SDS011;10478;49.004;8.470;2023-06-22T07:58:04;10.48;;;4.45;;
20637;SDS011;10478;49.004;8.470;2023-06-22T08:00:29;9.32;;;4.70;;
20637;SDS011;10478;49.004;8.470;2023-06-22T08:02:55;8.45;;;4.75;;
20637;SDS011;10478;49.004;8.470;2023-06-22T08:05:21;7.70;;;4.50;;
20637;SDS011;10478;49.004;8.470;2023-06-22T08:07:46;10.30;;;4.30;;
20637;SDS011;10478;49.004;8.470;2023-06-22T08:10:12;10.00;;;4.88;;
20637;SDS011;10478;49.004;8.470;2023-06-22T08:12:37;7.93;;;4.40;;
20637;SDS011;10478;49.004;8.470;2023-06-22T08:15:03;7.53;;;4.53;;
20637;SDS011;10478;49.004;8.470;2023-06-22T08:17:30;7.65;;;3.97;;
20637;SDS011;10478;49.004;8.470;2023-06-22T08:19:56;8.52;;;4.25;;
20637;SDS011;10478;49.004;8.470;2023-06-22T08:22:21;10.18;;;4.72;;
20637;SDS011;10478;49.004;8.470;2023-06-22T08:24:47;5.75;;;3.90;;
20637;SDS011;10478;49.004;8.470;2023-06-22T08:27:12;7.82;;;4.60;;
20637;SDS011;10478;49.004;8.470;2023-06-22T08:29:38;10.80;;;4.90;;
20637;SDS011;10478;49.004;8.470;2023-06-22T08:32:04;10.93;;;4.90;;
20637;SDS011;10478;49.004;8.470;2023-06-22T08:34:30;9.50;;;4.35;;
20637;SDS011;10478;49.004;8.470;2023-06-22T08:36:55;8.68;;;4.82;;
20637;SDS011;10478;49.004;8.470;2023-06-22T08:39:20;9.57;;;4.78;;
20637;SDS011;10478;49.004;8.470;2023-06-22T08:41:46;9.90;;;4.43;;
20637;SDS011;10478;49.004;8.470;2023-06-22T08:44:12;5.22;;;4.20;;
20637;SDS011;10478;49.004;8.470;2023-06-22T08:46:38;8.15;;;4.47;;
20637;SDS011;10478;49.004;8.470;2023-06-22T08:49:05;10.80;;;5.07;;
20637;SDS011;10478;49.004;8.470;2023-06-22T08:51:31;8.82;;;4.15;;
20637;SDS011;10478;49.004;8.470;2023-06-22T08:53:56;7.72;;;4.22;;
20637;SDS011;10478;49.004;8.470;2023-06-22T08:56:22;12.05;;;5.03;;
20637;SDS011;10478;49.004;8.470;2023-06-22T08:58:47;14.35;;;4.38;;
20637;SDS011;10478;49.004;8.470;2023-06-22T09:01:12;10.05;;;4.78;;
20637;SDS011;10478;49.004;8.470;2023-06-22T09:03:40;9.68;;;4.95;;
20637;SDS011;10478;49.004;8.470;2023-06-22T09:06:05;8.88;;;4.57;;
20637;SDS011;10478;49.004;8.470;2023-06-22T09:08:30;7.63;;;4.38;;
20637;SDS011;10478;49.004;8.470;2023-06-22T09:10:56;10.10;;;5.40;;
20637;SDS011;10478;49.004;8.470;2023-06-22T09:13:21;7.80;;;4.65;;
20637;SDS011;10478;49.004;8.470;2023-06-22T09:15:47;6.68;;;4.30;;
20637;SDS011;10478;49.004;8.470;2023-06-22T09:18:13;11.70;;;4.50;;
20637;SDS011;10478;49.004;8.470;2023-06-22T09:20:38;6.38;;;3.80;;
20637;SDS011;10478;49.004;8.470;2023-06-22T09:23:04;12.07;;;4.43;;
20637;SDS011;10478;49.004;8.470;2023-06-22T09:25:29;8.02;;;4.32;;
20637;SDS011;10478;49.004;8.470;2023-06-22T09:27:54;6.35;;;3.72;;
20637;SDS011;10478;49.004;8.470;2023-06-22T09:30:20;10.80;;;4.10;;
20637;SDS011;10478;49.004;8.470;2023-06-22T09:32:47;8.50;;;3.67;;
20637;SDS011;10478;49.004;8.470;2023-06-22T09:35:12;10.07;;;5.68;;
20637;SDS011;10478;49.004;8.470;2023-06-22T09:37:38;9.60;;;4.78;;
20637;SDS011;10478;49.004;8.470;2023-06-22T09:40:04;6.72;;;4.60;;
20637;SDS011;10478;49.004;8.470;2023-06-22T09:42:33;7.28;;;3.60;;
20637;SDS011;10478;49.004;8.470;2023-06-22T09:44:59;10.20;;;5.30;;
20637;SDS011;10478;49.004;8.470;2023-06-22T09:47:24;7.75;;;4.53;;
20637;SDS011;10478;49.004;8.470;2023-06-22T09:49:50;10.95;;;4.15;;
20637;SDS011;10478;49.004;8.470;2023-06-22T09:52:15;6.93;;;4.65;;
20637;SDS011;10478;49.004;8.470;2023-06-22T09:54:41;8.25;;;4.40;;
20637;SDS011;10478;49.004;8.470;2023-06-22T09:57:06;8.23;;;4.25;;
20637;SDS011;10478;49.004;8.470;2023-06-22T09:59:31;10.10;;;4.47;;
20637;SDS011;10478;49.004;8.470;2023-06-22T10:01:57;9.50;;;3.90;;
20637;SDS011;10478;49.004;8.470;2023-06-22T10:04:22;11.93;;;4.70;;
20637;SDS011;10478;49.004;8.470;2023-06-22T10:06:48;6.63;;;4.47;;
20637;SDS011;10478;49.004;8.470;2023-06-22T10:09:13;11.02;;;5.50;;
20637;SDS011;10478;49.004;8.470;2023-06-22T10:11:38;7.32;;;3.88;;
20637;SDS011;10478;49.004;8.470;2023-06-22T10:14:04;6.97;;;4.32;;
20637;SDS011;10478;49.004;8.470;2023-06-22T10:16:32;9.38;;;4.00;;
20637;SDS011;10478;49.004;8.470;2023-06-22T10:19:00;8.77;;;4.40;;
20637;SDS011;10478;49.004;8.470;2023-06-22T10:21:25;7.18;;;4.28;;
20637;SDS011;10478;49.004;8.470;2023-06-22T10:23:52;10.25;;;4.22;;
20637;SDS011;10478;49.004;8.470;2023-06-22T10:26:17;6.57;;;4.53;;
20637;SDS011;10478;49.004;8.470;2023-06-22T10:28:43;7.70;;;3.97;;
20637;SDS011;10478;49.004;8.470;2023-06-22T10:31:08;8.27;;;4.35;;
20637;SDS011;10478;49.004;8.470;2023-06-22T10:33:33;9.10;;;4.00;;
20637;SDS011;10478;49.004;8.470;2023-06-22T10:35:59;6.35;;;4.00;;
20637;SDS011;10478;49.004;8.470;2023-06-22T10:38:24;7.38;;;4.53;;
20637;SDS011;10478;49.004;8.470;2023-06-22T10:40:49;9.75;;;4.63;;
20637;SDS011;10478;49.004;8.470;2023-06-22T10:43:14;9.20;;;4.15;;
20637;SDS011;10478;49.004;8.470;2023-06-22T10:45:40;7.88;;;4.22;;
20637;SDS011;10478;49.004;8.470;2023-06-22T10:48:05;7.47;;;4.47;;
20637;SDS011;10478;49.004;8.470;2023-06-22T10:50:30;10.60;;;5.03;;
20637;SDS011;10478;49.004;8.470;2023-06-22T10:52:56;6.70;;;4.30;;
20637;SDS011;10478;49.004;8.470;2023-06-22T10:55:22;6.80;;;4.25;;
20637;SDS011;10478;49.004;8.470;2023-06-22T10:57:48;7.22;;;3.67;;
20637;SDS011;10478;49.004;8.470;2023-06-22T11:00:13;10.48;;;4.65;;
20637;SDS011;10478;49.004;8.470;2023-06-22T11:02:39;7.15;;;4.57;;
20637;SDS011;10478;49.004;8.470;2023-06-22T11:05:05;9.50;;;4.28;;
20637;SDS011;10478;49.004;8.470;2023-06-22T11:07:30;6.13;;;3.90;;
20637;SDS011;10478;49.004;8.470;2023-06-22T11:09:56;9.50;;;4.53;;
20637;SDS011;10478;49.004;8.470;2023-06-22T11:12:21;7.53;;;4.18;;
20637;SDS011;10478;49.004;8.470;2023-06-22T11:14:47;6.13;;;4.28;;
20637;SDS011;10478;49.004;8.470;2023-06-22T11:17:12;10.27;;;5.38;;
20637;SDS011;10478;49.004;8.470;2023-06-22T11:19:37;5.72;;;3.78;;
20637;SDS011;10478;49.004;8.470;2023-06-22T11:22:03;6.72;;;4.18;;
20637;SDS011;10478;49.004;8.470;2023-06-22T11:24:28;8.07;;;4.25;;
20637;SDS011;10478;49.004;8.470;2023-06-22T11:26:53;7.10;;;3.95;;
20637;SDS011;10478;49.004;8.470;2023-06-22T11:29:19;8.43;;;4.53;;
20637;SDS011;10478;49.004;8.470;2023-06-22T11:31:44;12.68;;;4.55;;
20637;SDS011;10478;49.004;8.470;2023-06-22T11:34:09;6.75;;;5.15;;
20637;SDS011;10478;49.004;8.470;2023-06-22T11:36:35;9.52;;;4.68;;
20637;SDS011;10478;49.004;8.470;2023-06-22T11:39:00;6.20;;;4.05;;
20637;SDS011;10478;49.004;8.470;2023-06-22T11:41:26;8.70;;;4.43;;
20637;SDS011;10478;49.004;8.470;2023-06-22T11:43:51;12.27;;;3.88;;
20637;SDS011;10478;49.004;8.470;2023-06-22T11:46:17;10.20;;;4.60;;
20637;SDS011;10478;49.004;8.470;2023-06-22T11:48:42;8.38;;;4.15;;
20637;SDS011;10478;49.004;8.470;2023-06-22T11:51:07;6.43;;;4.07;;
20637;SDS011;10478;49.004;8.470;2023-06-22T11:53:33;8.63;;;4.47;;
20637;SDS011;10478;49.004;8.470;2023-06-22T11:55:59;6.45;;;4.35;;
20637;SDS011;10478;49.004;8.470;2023-06-22T11:58:25;10.10;;;4.82;;
20637;SDS011;10478;49.004;8.470;2023-06-22T12:00:50;10.02;;;5.00;;
20637;SDS011;10478;49.004;8.470;2023-06-22T12:03:16;8.65;;;3.90;;
20637;SDS011;10478;49.004;8.470;2023-06-22T12:05:42;6.63;;;4.07;;
20637;SDS011;10478;49.004;8.470;2023-06-22T12:08:07;9.30;;;4.07;;
20637;SDS011;10478;49.004;8.470;2023-06-22T12:10:33;14.68;;;5.00;;
20637;SDS011;10478;49.004;8.470;2023-06-22T12:12:59;5.88;;;4.40;;
20637;SDS011;10478;49.004;8.470;2023-06-22T12:15:25;8.40;;;4.10;;
20637;SDS011;10478;49.004;8.470;2023-06-22T12:17:50;6.38;;;4.07;;
20637;SDS011;10478;49.004;8.470;2023-06-22T12:20:15;5.38;;;3.90;;
20637;SDS011;10478;49.004;8.470;2023-06-22T12:22:41;7.95;;;4.10;;
20637;SDS011;10478;49.004;8.470;2023-06-22T12:25:07;8.20;;;4.75;;
20637;SDS011;10478;49.004;8.470;2023-06-22T12:27:33;8.50;;;4.25;;
20637;SDS011;10478;49.004;8.470;2023-06-22T12:29:58;8.98;;;3.90;;
20637;SDS011;10478;49.004;8.470;2023-06-22T12:32:24;10.20;;;4.50;;
20637;SDS011;10478;49.004;8.470;2023-06-22T12:34:50;5.30;;;3.92;;
20637;SDS011;10478;49.004;8.470;2023-06-22T12:37:15;9.13;;;4.35;;
20637;SDS011;10478;49.004;8.470;2023-06-22T12:39:41;8.73;;;4.35;;
20637;SDS011;10478;49.004;8.470;2023-06-22T12:42:07;7.95;;;4.93;;
20637;SDS011;10478;49.004;8.470;2023-06-22T12:44:34;7.00;;;4.70;;
20637;SDS011;10478;49.004;8.470;2023-06-22T12:46:59;7.90;;;4.18;;
20637;SDS011;10478;49.004;8.470;2023-06-22T12:49:25;6.25;;;4.53;;
20637;SDS011;10478;49.004;8.470;2023-06-22T12:51:50;10.32;;;4.72;;
20637;SDS011;10478;49.004;8.470;2023-06-22T12:54:15;7.15;;;3.90;;
20637;SDS011;10478;49.004;8.470;2023-06-22T12:56:40;12.50;;;5.47;;
20637;SDS011;10478;49.004;8.470;2023-06-22T12:59:08;6.90;;;4.63;;
20637;SDS011;10478;49.004;8.470;2023-06-22T13:01:34;8.23;;;4.82;;
20637;SDS011;10478;49.004;8.470;2023-06-22T13:03:59;6.55;;;4.90;;
20637;SDS011;10478;49.004;8.470;2023-06-22T13:06:24;8.30;;;4.85;;
20637;SDS011;10478;49.004;8.470;2023-06-22T13:08:50;9.88;;;4.22;;
20637;SDS011;10478;49.004;8.470;2023-06-22T13:11:15;9.95;;;4.70;;
20637;SDS011;10478;49.004;8.470;2023-06-22T13:13:41;8.60;;;4.70;;
20637;SDS011;10478;49.004;8.470;2023-06-22T13:16:06;8.05;;;5.15;;
20637;SDS011;10478;49.004;8.470;2023-06-22T13:18:32;12.45;;;4.88;;
20637;SDS011;10478;49.004;8.470;2023-06-22T13:20:59;8.35;;;4.90;;
20637;SDS011;10478;49.004;8.470;2023-06-22T13:23:25;7.45;;;4.45;;
20637;SDS011;10478;49.004;8.470;2023-06-22T13:25:50;7.32;;;4.45;;
20637;SDS011;10478;49.004;8.470;2023-06-22T13:28:15;14.55;;;4.72;;
20637;SDS011;10478;49.004;8.470;2023-06-22T13:30:41;8.77;;;4.20;;
20637;SDS011;10478;49.004;8.470;2023-06-22T13:33:07;8.85;;;4.57;;
20637;SDS011;10478;49.004;8.470;2023-06-22T13:35:32;11.63;;;4.50;;
20637;SDS011;10478;49.004;8.470;2023-06-22T13:37:57;8.07;;;4.05;;
20637;SDS011;10478;49.004;8.470;2023-06-22T13:40:23;10.45;;;4.20;;
20637;SDS011;10478;49.004;8.470;2023-06-22T13:42:48;7.43;;;4.82;;
20637;SDS011;10478;49.004;8.470;2023-06-22T13:45:13;7.53;;;4.53;;
20637;SDS011;10478;49.004;8.470;2023-06-22T13:47:41;14.68;;;5.07;;
20637;SDS011;10478;49.004;8.470;2023-06-22T13:50:06;11.70;;;5.15;;
20637;SDS011;10478;49.004;8.470;2023-06-22T13:52:32;7.22;;;4.18;;
20637;SDS011;10478;49.004;8.470;2023-06-22T13:54:57;7.32;;;4.93;;
20637;SDS011;10478;49.004;8.470;2023-06-22T13:57:23;6.50;;;4.20;;
20637;SDS011;10478;49.004;8.470;2023-06-22T13:59:48;10.38;;;5.30;;
20637;SDS011;10478;49.004;8.470;2023-06-22T14:02:13;8.23;;;4.65;;
20637;SDS011;10478;49.004;8.470;2023-06-22T14:04:39;5.95;;;4.13;;
20637;SDS011;10478;49.004;8.470;2023-06-22T14:07:04;8.30;;;5.07;;
20637;SDS011;10478;49.004;8.470;2023-06-22T14:09:29;14.60;;;5.22;;
20637;SDS011;10478;49.004;8.470;2023-06-22T14:11:55;8.10;;;5.90;;
20637;SDS011;10478;49.004;8.470;2023-06-22T14:14:21;10.57;;;6.35;;
20637;SDS011;10478;49.004;8.470;2023-06-22T14:16:46;17.83;;;8.07;;
20637;SDS011;10478;49.004;8.470;2023-06-22T14:19:12;14.05;;;8.98;;
20637;SDS011;10478;49.004;8.470;2023-06-22T14:21:38;28.58;;;17.88;;
20637;SDS011;10478;49.004;8.470;2023-06-22T14:24:03;20.30;;;10.07;;
20637;SDS011;10478;49.004;8.470;2023-06-22T14:26:28;9.98;;;7.35;;
20637;SDS011;10478;49.004;8.470;2023-06-22T14:28:54;10.95;;;6.28;;
20637;SDS011;10478;49.004;8.470;2023-06-22T14:31:19;13.18;;;7.22;;
20637;SDS011;10478;49.004;8.470;2023-06-22T14:33:48;10.90;;;7.50;;
20637;SDS011;10478;49.004;8.470;2023-06-22T14:36:14;12.70;;;6.82;;
20637;SDS011;10478;49.004;8.470;2023-06-22T14:38:40;12.05;;;6.25;;
20637;SDS011;10478;49.004;8.470;2023-06-22T14:41:05;13.02;;;6.32;;
20637;SDS011;10478;49.004;8.470;2023-06-22T14:43:31;10.25;;;5.47;;